| time (UTC) | temp C | wind direction | speed KPH | gust KPH | rain 1hr cm | rain 24hr cm | rain mn cm | humidity % | barometer mb |
| 20260507093701 | 11 | 167 | 0.0 | 1.6 | 0.00 | 0.00 | 0.00 | 83 | 1021.6 |
| 20260507093201 | 11 | 167 | 0.0 | 1.6 | 0.00 | 0.00 | 0.00 | 83 | 1021.5 |
| 20260507092701 | 11 | 167 | 0.0 | 4.8 | 0.00 | 0.00 | 0.00 | 83 | 1021.5 |
| 20260507092201 | 11 | 167 | 0.0 | 4.8 | 0.00 | 0.00 | 0.00 | 83 | 1021.5 |
| 20260507091701 | 11 | 167 | 0.0 | 4.8 | 0.00 | 0.00 | 0.00 | 83 | 1021.5 |
| 20260507091201 | 11 | 167 | 0.0 | 6.4 | 0.00 | 0.00 | 0.00 | 83 | 1021.5 |
| 20260507090655 | 11 | 167 | 1.6 | 6.4 | 0.00 | 0.00 | 0.00 | 83 | 1021.5 |
| 20260507090150 | 11 | 167 | 1.6 | 6.4 | 0.00 | 0.00 | 0.00 | 83 | 1021.4 |
| 20260507085644 | 11 | 165 | 1.6 | 8.0 | 0.00 | 0.00 | 0.00 | 83 | 1021.5 |
| 20260507085138 | 11 | 168 | 4.8 | 11.3 | 0.00 | 0.00 | 0.00 | 83 | 1021.5 |
| 20260507084631 | 11 | 179 | 4.8 | 11.3 | 0.00 | 0.00 | 0.00 | 83 | 1021.4 |
| 20260507084130 | 11 | 159 | 3.2 | 11.3 | 0.00 | 0.00 | 0.00 | 83 | 1021.4 |
| 20260507083629 | 11 | 182 | 4.8 | 11.3 | 0.00 | 0.00 | 0.00 | 83 | 1021.4 |
| 20260507082629 | 11 | 186 | 6.4 | 14.5 | 0.00 | 0.00 | 0.00 | 83 | 1021.4 |
| 20260507082129 | 11 | 184 | 6.4 | 16.1 | 0.00 | 0.00 | 0.00 | 83 | 1021.4 |
| 20260507080629 | 11 | 190 | 9.7 | 17.7 | 0.00 | 0.00 | 0.00 | 83 | 1021.3 |
| 20260507080130 | 11 | 177 | 9.7 | 16.1 | 0.00 | 0.00 | 0.00 | 83 | 1021.3 |
| 20260507075628 | 11 | 196 | 9.7 | 16.1 | 0.00 | 0.00 | 0.00 | 83 | 1021.3 |
| 20260507075128 | 11 | 0 | 9.7 | 16.1 | 0.00 | 0.00 | 0.00 | 83 | 1021.3 |
| 20260507074128 | 12 | 196 | 8.0 | 16.1 | 0.00 | 0.00 | 0.00 | 83 | 1021.2 |
| 20260507073629 | 11 | 195 | 8.0 | 16.1 | 0.00 | 0.00 | 0.00 | 83 | 1021.2 |
| 20260507073129 | 12 | 182 | 9.7 | 17.7 | 0.00 | 0.00 | 0.00 | 83 | 1021.3 |
| 20260507071623 | 12 | 205 | 8.0 | 16.1 | 0.00 | 0.00 | 0.00 | 84 | 1021.3 |
| 20260507071116 | 12 | 202 | 8.0 | 16.1 | 0.00 | 0.00 | 0.00 | 84 | 1021.2 |
| 20260507070611 | 12 | 185 | 8.0 | 16.1 | 0.00 | 0.00 | 0.00 | 84 | 1021.2 |
| 20260507070105 | 12 | 193 | 8.0 | 14.5 | 0.00 | 0.00 | 0.00 | 84 | 1021.2 |
| 20260507065604 | 12 | 223 | 6.4 | 12.9 | 0.00 | 0.00 | 0.00 | 84 | 1021.1 |
| 20260507065102 | 12 | 157 | 8.0 | 14.5 | 0.00 | 0.00 | 0.00 | 84 | 1021.2 |
| 20260507064102 | 12 | 201 | 8.0 | 16.1 | 0.00 | 0.00 | 0.00 | 83 | 1021.1 |
| 20260507063602 | 12 | 198 | 8.0 | 14.5 | 0.00 | 0.00 | 0.00 | 83 | 1021.1 |
| 20260507063101 | 12 | 205 | 9.7 | 17.7 | 0.00 | 0.00 | 0.00 | 83 | 1021.1 |
| 20260507062602 | 12 | 199 | 8.0 | 17.7 | 0.00 | 0.00 | 0.00 | 83 | 1021.0 |
| 20260507062101 | 12 | 202 | 8.0 | 16.1 | 0.00 | 0.00 | 0.00 | 83 | 1021.1 |
| 20260507061600 | 12 | 171 | 9.7 | 16.1 | 0.00 | 0.00 | 0.00 | 82 | 1021.0 |
| 20260507061101 | 12 | 179 | 9.7 | 17.7 | 0.00 | 0.00 | 0.00 | 82 | 1021.1 |
| 20260507060601 | 12 | 194 | 9.7 | 17.7 | 0.00 | 0.00 | 0.00 | 82 | 1021.1 |
| 20260507060101 | 12 | 184 | 8.0 | 16.1 | 0.00 | 0.00 | 0.00 | 82 | 1021.2 |
| 20260507055601 | 12 | 194 | 8.0 | 16.1 | 0.00 | 0.00 | 0.00 | 81 | 1021.2 |
| 20260507055101 | 12 | 188 | 6.4 | 12.9 | 0.00 | 0.00 | 0.00 | 81 | 1021.2 |
| 20260507054601 | 12 | 200 | 4.8 | 9.7 | 0.00 | 0.00 | 0.00 | 81 | 1021.3 |
| 20260507054101 | 12 | 170 | 4.8 | 9.7 | 0.00 | 0.00 | 0.00 | 81 | 1021.4 |
| 20260507053601 | 12 | 170 | 3.2 | 8.0 | 0.00 | 0.00 | 0.00 | 81 | 1021.4 |
| 20260507052552 | 12 | 150 | 3.2 | 8.0 | 0.00 | 0.00 | 0.00 | 81 | 1021.4 |
| 20260507052046 | 12 | 189 | 3.2 | 8.0 | 0.00 | 0.00 | 0.00 | 81 | 1021.4 |
| 20260507050534 | 13 | 194 | 8.0 | 12.9 | 0.00 | 0.00 | 0.00 | 80 | 1021.3 |
| 20260507045532 | 13 | 206 | 6.4 | 14.5 | 0.00 | 0.00 | 0.00 | 80 | 1021.3 |
| 20260507045032 | 13 | 201 | 6.4 | 14.5 | 0.00 | 0.00 | 0.00 | 79 | 1021.3 |
| 20260507043529 | 13 | 194 | 6.4 | 11.3 | 0.00 | 0.00 | 0.00 | 79 | 1021.2 |
| 20260507042531 | 13 | 172 | 4.8 | 11.3 | 0.00 | 0.00 | 0.00 | 78 | 1021.3 |
| 20260507042029 | 13 | 177 | 4.8 | 12.9 | 0.00 | 0.00 | 0.00 | 78 | 1021.2 |
| 20260507041529 | 13 | 198 | 4.8 | 12.9 | 0.00 | 0.00 | 0.00 | 78 | 1021.1 |
| 20260507041029 | 13 | 198 | 6.4 | 14.5 | 0.00 | 0.00 | 0.00 | 78 | 1021.2 |
| 20260507040031 | 13 | 198 | 8.0 | 12.9 | 0.00 | 0.00 | 0.00 | 78 | 1021.1 |
| 20260507035530 | 13 | 217 | 8.0 | 12.9 | 0.00 | 0.00 | 0.00 | 78 | 1021.0 |
| 20260507035030 | 13 | 199 | 8.0 | 14.5 | 0.00 | 0.00 | 0.00 | 77 | 1021.0 |
| 20260507034529 | 13 | 188 | 8.0 | 16.1 | 0.00 | 0.00 | 0.00 | 77 | 1021.0 |
| 20260507034029 | 13 | 193 | 8.0 | 16.1 | 0.00 | 0.00 | 0.00 | 77 | 1020.9 |
| 20260507033529 | 13 | 194 | 9.7 | 14.5 | 0.00 | 0.00 | 0.00 | 77 | 1020.9 |
| 20260507033029 | 13 | 200 | 9.7 | 17.7 | 0.00 | 0.00 | 0.00 | 76 | 1020.9 |
| 20260507032530 | 13 | 191 | 11.3 | 17.7 | 0.00 | 0.00 | 0.00 | 76 | 1020.9 |
| 20260507032029 | 14 | 208 | 9.7 | 16.1 | 0.00 | 0.00 | 0.00 | 76 | 1020.8 |
| 20260507031528 | 14 | 194 | 9.7 | 17.7 | 0.00 | 0.00 | 0.00 | 75 | 1020.8 |
| 20260507031029 | 14 | 208 | 9.7 | 17.7 | 0.00 | 0.00 | 0.00 | 75 | 1020.8 |
| 20260507030528 | 14 | 200 | 9.7 | 17.7 | 0.00 | 0.00 | 0.00 | 75 | 1020.7 |
| 20260507030028 | 14 | 200 | 8.0 | 14.5 | 0.00 | 0.00 | 0.00 | 74 | 1020.7 |
| 20260507025530 | 14 | 204 | 8.0 | 14.5 | 0.00 | 0.00 | 0.00 | 74 | 1020.6 |
| 20260507025030 | 14 | 153 | 8.0 | 14.5 | 0.00 | 0.00 | 0.00 | 74 | 1020.6 |
| 20260507024529 | 14 | 191 | 8.0 | 14.5 | 0.00 | 0.00 | 0.00 | 74 | 1020.6 |
| 20260507024028 | 14 | 194 | 8.0 | 14.5 | 0.00 | 0.00 | 0.00 | 74 | 1020.5 |
| 20260507023529 | 14 | 184 | 8.0 | 14.5 | 0.00 | 0.00 | 0.00 | 74 | 1020.5 |
| 20260507023028 | 14 | 186 | 8.0 | 14.5 | 0.00 | 0.00 | 0.00 | 74 | 1020.5 |
| 20260507022029 | 14 | 163 | 9.7 | 16.1 | 0.00 | 0.00 | 0.00 | 74 | 1020.4 |
| 20260507021529 | 14 | 201 | 9.7 | 16.1 | 0.00 | 0.00 | 0.00 | 73 | 1020.4 |
| 20260507021029 | 14 | 198 | 8.0 | 12.9 | 0.00 | 0.00 | 0.00 | 74 | 1020.4 |
| 20260507020529 | 14 | 191 | 8.0 | 12.9 | 0.00 | 0.00 | 0.00 | 73 | 1020.4 |
| 20260507020028 | 14 | 198 | 8.0 | 14.5 | 0.00 | 0.00 | 0.00 | 73 | 1020.4 |
| 20260507015529 | 14 | 180 | 8.0 | 14.5 | 0.00 | 0.00 | 0.00 | 73 | 1020.5 |
| 20260507015029 | 14 | 180 | 8.0 | 14.5 | 0.00 | 0.00 | 0.00 | 73 | 1020.4 |
| 20260507014529 | 14 | 202 | 6.4 | 12.9 | 0.00 | 0.00 | 0.00 | 73 | 1020.5 |
| 20260507014029 | 14 | 189 | 8.0 | 11.3 | 0.00 | 0.00 | 0.00 | 73 | 1020.5 |
| 20260507013528 | 14 | 169 | 8.0 | 12.9 | 0.00 | 0.00 | 0.00 | 73 | 1020.5 |
| 20260507013029 | 14 | 181 | 8.0 | 12.9 | 0.00 | 0.00 | 0.00 | 73 | 1020.5 |
| 20260507012529 | 14 | 175 | 8.0 | 12.9 | 0.00 | 0.00 | 0.00 | 73 | 1020.6 |
| 20260507012030 | 14 | 186 | 8.0 | 16.1 | 0.00 | 0.00 | 0.00 | 73 | 1020.6 |
| 20260507011529 | 14 | 193 | 8.0 | 16.1 | 0.00 | 0.00 | 0.00 | 73 | 1020.6 |
| 20260507011028 | 14 | 181 | 6.4 | 14.5 | 0.00 | 0.00 | 0.00 | 73 | 1020.5 |
| 20260507010528 | 14 | 200 | 6.4 | 12.9 | 0.00 | 0.00 | 0.00 | 73 | 1020.6 |
| 20260507005529 | 14 | 172 | 8.0 | 17.7 | 0.00 | 0.00 | 0.00 | 74 | 1020.6 |
| 20260507005031 | 14 | 200 | 9.7 | 17.7 | 0.00 | 0.00 | 0.00 | 74 | 1020.6 |
| 20260507004529 | 14 | 190 | 9.7 | 17.7 | 0.00 | 0.00 | 0.00 | 73 | 1020.7 |
| 20260507004029 | 14 | 192 | 9.7 | 16.1 | 0.00 | 0.00 | 0.00 | 73 | 1020.7 |
| 20260507003529 | 14 | 181 | 6.4 | 16.1 | 0.00 | 0.00 | 0.00 | 73 | 1020.7 |
| 20260507003029 | 14 | 190 | 6.4 | 14.5 | 0.00 | 0.00 | 0.00 | 73 | 1020.7 |
| 20260507002529 | 14 | 184 | 6.4 | 12.9 | 0.00 | 0.00 | 0.00 | 73 | 1020.7 |
| 20260507002030 | 14 | 157 | 6.4 | 14.5 | 0.00 | 0.00 | 0.00 | 73 | 1020.7 |
| 20260507001029 | 15 | 186 | 6.4 | 12.9 | 0.00 | 0.00 | 0.00 | 73 | 1020.6 |
| 20260507000029 | 14 | 199 | 6.4 | 12.9 | 0.00 | 0.00 | 0.00 | 73 | 1020.6 |
| 20260506235030 | 14 | 169 | 6.4 | 11.3 | 0.00 | 0.00 | 0.00 | 73 | 1020.7 |
| 20260506234529 | 14 | 169 | 6.4 | 12.9 | 0.00 | 0.00 | 0.00 | 73 | 1020.7 |
| 20260506233529 | 14 | 182 | 8.0 | 16.1 | 0.00 | 0.00 | 0.00 | 73 | 1020.7 |
| 20260506233029 | 14 | 196 | 9.7 | 16.1 | 0.00 | 0.00 | 0.00 | 73 | 1020.7 |
| 20260506232529 | 14 | 181 | 9.7 | 19.3 | 0.00 | 0.00 | 0.00 | 73 | 1020.8 |
| 20260506232029 | 14 | 212 | 11.3 | 19.3 | 0.00 | 0.00 | 0.00 | 73 | 1020.8 |
| 20260506231532 | 14 | 0 | 9.7 | 16.1 | 0.00 | 0.00 | 0.00 | 72 | 1020.8 |
| 20260506231028 | 14 | 184 | 8.0 | 16.1 | 0.00 | 0.00 | 0.00 | 72 | 1020.9 |
| 20260506230529 | 14 | 192 | 8.0 | 12.9 | 0.00 | 0.00 | 0.00 | 72 | 1020.8 |
| 20260506230029 | 14 | 202 | 8.0 | 16.1 | 0.00 | 0.00 | 0.00 | 72 | 1020.8 |
| 20260506225529 | 14 | 201 | 9.7 | 17.7 | 0.00 | 0.00 | 0.00 | 72 | 1020.9 |
| 20260506224529 | 14 | 209 | 9.7 | 16.1 | 0.00 | 0.00 | 0.00 | 73 | 1020.9 |
| 20260506224030 | 14 | 195 | 9.7 | 17.7 | 0.00 | 0.00 | 0.00 | 72 | 1020.8 |
| 20260506223529 | 14 | 211 | 11.3 | 20.9 | 0.00 | 0.00 | 0.00 | 72 | 1020.8 |
| 20260506222529 | 14 | 200 | 12.9 | 25.7 | 0.00 | 0.00 | 0.00 | 73 | 1020.9 |
| 20260506222029 | 14 | 204 | 12.9 | 25.7 | 0.00 | 0.00 | 0.00 | 72 | 1020.9 |
| 20260506221529 | 14 | 206 | 12.9 | 22.5 | 0.00 | 0.00 | 0.00 | 72 | 1021.0 |
| 20260506221029 | 14 | 205 | 11.3 | 20.9 | 0.00 | 0.00 | 0.00 | 72 | 1021.0 |
| 20260506220532 | 14 | 217 | 11.3 | 20.9 | 0.00 | 0.00 | 0.00 | 71 | 1021.0 |
| 20260506220029 | 15 | 173 | 11.3 | 22.5 | 0.00 | 0.00 | 0.00 | 70 | 1021.0 |
| 20260506215028 | 15 | 200 | 12.9 | 22.5 | 0.00 | 0.00 | 0.00 | 70 | 1020.9 |
| 20260506214028 | 15 | 198 | 11.3 | 20.9 | 0.00 | 0.00 | 0.00 | 69 | 1020.9 |
| 20260506213531 | 15 | 204 | 11.3 | 20.9 | 0.00 | 0.00 | 0.00 | 69 | 1021.0 |
| 20260506213029 | 15 | 196 | 9.7 | 20.9 | 0.00 | 0.00 | 0.00 | 69 | 1021.0 |
| 20260506212529 | 15 | 205 | 9.7 | 17.7 | 0.00 | 0.00 | 0.00 | 70 | 1020.9 |
| 20260506211528 | 15 | 197 | 11.3 | 17.7 | 0.00 | 0.00 | 0.00 | 70 | 1021.1 |
| 20260506211029 | 15 | 181 | 11.3 | 22.5 | 0.00 | 0.00 | 0.00 | 70 | 1021.0 |
| 20260506210529 | 15 | 157 | 11.3 | 22.5 | 0.00 | 0.00 | 0.00 | 70 | 1021.0 |
| 20260506210027 | 15 | 196 | 9.7 | 17.7 | 0.00 | 0.00 | 0.00 | 70 | 1021.1 |
| 20260506205527 | 15 | 182 | 9.7 | 19.3 | 0.00 | 0.00 | 0.00 | 70 | 1021.0 |
| 20260506205025 | 15 | 198 | 11.3 | 19.3 | 0.00 | 0.00 | 0.00 | 70 | 1021.0 |
| 20260506204524 | 15 | 217 | 11.3 | 19.3 | 0.00 | 0.00 | 0.00 | 70 | 1021.0 |
| 20260506204025 | 15 | 204 | 11.3 | 20.9 | 0.00 | 0.00 | 0.00 | 70 | 1020.9 |
| 20260506203522 | 15 | 200 | 11.3 | 20.9 | 0.00 | 0.00 | 0.00 | 70 | 1020.8 |
| 20260506202521 | 15 | 215 | 11.3 | 24.1 | 0.00 | 0.00 | 0.00 | 71 | 1020.9 |
| 20260506202021 | 15 | 192 | 12.9 | 24.1 | 0.00 | 0.00 | 0.00 | 71 | 1020.9 |
| 20260506201521 | 15 | 182 | 12.9 | 24.1 | 0.00 | 0.00 | 0.00 | 71 | 1020.9 |
| 20260506201021 | 14 | 180 | 12.9 | 25.7 | 0.00 | 0.00 | 0.00 | 71 | 1020.9 |
| 20260506200521 | 14 | 194 | 14.5 | 25.7 | 0.00 | 0.00 | 0.00 | 71 | 1020.9 |
| 20260506200021 | 15 | 223 | 14.5 | 25.7 | 0.00 | 0.00 | 0.00 | 70 | 1020.8 |
| 20260506195520 | 14 | 202 | 12.9 | 25.7 | 0.00 | 0.00 | 0.00 | 71 | 1020.8 |
| 20260506195021 | 14 | 207 | 11.3 | 22.5 | 0.00 | 0.00 | 0.00 | 72 | 1020.8 |
| 20260506194520 | 14 | 221 | 11.3 | 22.5 | 0.00 | 0.00 | 0.00 | 72 | 1020.8 |
| 20260506193520 | 14 | 177 | 9.7 | 17.7 | 0.00 | 0.00 | 0.00 | 73 | 1020.8 |
| 20260506193021 | 14 | 213 | 9.7 | 19.3 | 0.00 | 0.00 | 0.00 | 75 | 1020.8 |
| 20260506192020 | 13 | 206 | 9.7 | 17.7 | 0.00 | 0.00 | 0.00 | 75 | 1020.8 |
| 20260506191521 | 13 | 180 | 9.7 | 17.7 | 0.00 | 0.00 | 0.00 | 75 | 1020.7 |
| 20260506191020 | 13 | 157 | 8.0 | 14.5 | 0.00 | 0.00 | 0.00 | 76 | 1020.7 |
| 20260506190520 | 13 | 172 | 8.0 | 19.3 | 0.00 | 0.00 | 0.00 | 76 | 1020.6 |
| 20260506190017 | 13 | 213 | 9.7 | 19.3 | 0.00 | 0.00 | 0.00 | 76 | 1020.6 |
| 20260506185517 | 13 | 178 | 6.4 | 14.5 | 0.00 | 0.00 | 0.00 | 77 | 1020.7 |
| 20260506184517 | 13 | 184 | 6.4 | 14.5 | 0.00 | 0.00 | 0.00 | 78 | 1020.7 |
| 20260506183516 | 13 | 200 | 6.4 | 17.7 | 0.00 | 0.00 | 0.00 | 78 | 1020.7 |
| 20260506183017 | 13 | 196 | 8.0 | 16.1 | 0.00 | 0.00 | 0.00 | 79 | 1020.7 |
| 20260506182516 | 13 | 198 | 8.0 | 16.1 | 0.00 | 0.00 | 0.00 | 79 | 1020.8 |
| 20260506182018 | 13 | 193 | 6.4 | 16.1 | 0.00 | 0.00 | 0.00 | 80 | 1020.7 |
| 20260506181014 | 13 | 163 | 8.0 | 14.5 | 0.00 | 0.00 | 0.00 | 81 | 1020.8 |
| 20260506180515 | 13 | 188 | 8.0 | 14.5 | 0.00 | 0.00 | 0.00 | 82 | 1020.8 |
| 20260506180014 | 13 | 131 | 8.0 | 12.9 | 0.00 | 0.00 | 0.00 | 82 | 1020.6 |
| 20260506175015 | 12 | 185 | 8.0 | 14.5 | 0.00 | 0.00 | 0.00 | 84 | 1020.3 |
| 20260506174515 | 12 | 175 | 8.0 | 14.5 | 0.00 | 0.00 | 0.00 | 85 | 1020.4 |
| 20260506174014 | 12 | 196 | 9.7 | 16.1 | 0.00 | 0.00 | 0.00 | 85 | 1020.5 |
| 20260506173514 | 12 | 180 | 9.7 | 16.1 | 0.00 | 0.00 | 0.00 | 85 | 1020.4 |
| 20260506171514 | 12 | 203 | 6.4 | 14.5 | 0.00 | 0.00 | 0.00 | 87 | 1020.4 |
| 20260506171015 | 12 | 186 | 6.4 | 14.5 | 0.00 | 0.00 | 0.00 | 87 | 1020.6 |
| 20260506170514 | 12 | 196 | 4.8 | 14.5 | 0.00 | 0.00 | 0.00 | 87 | 1020.7 |
| 20260506170006 | 12 | 194 | 3.2 | 9.7 | 0.00 | 0.00 | 0.00 | 87 | 1020.6 |
| 20260506165508 | 12 | 175 | 4.8 | 11.3 | 0.00 | 0.00 | 0.00 | 87 | 1020.6 |
| 20260506165005 | 12 | 155 | 6.4 | 14.5 | 0.00 | 0.00 | 0.00 | 87 | 1020.4 |
| 20260506164504 | 12 | 158 | 6.4 | 14.5 | 0.00 | 0.00 | 0.00 | 87 | 1020.4 |
| 20260506164004 | 12 | 178 | 6.4 | 16.1 | 0.00 | 0.00 | 0.00 | 87 | 1020.4 |
| 20260506163504 | 12 | 180 | 6.4 | 16.1 | 0.00 | 0.00 | 0.00 | 87 | 1020.5 |
| 20260506163005 | 12 | 166 | 6.4 | 16.1 | 0.00 | 0.00 | 0.00 | 87 | 1020.4 |
| 20260506162504 | 12 | 204 | 8.0 | 16.1 | 0.00 | 0.00 | 0.00 | 87 | 1020.3 |
| 20260506162003 | 12 | 154 | 8.0 | 14.5 | 0.00 | 0.00 | 0.00 | 87 | 1020.1 |
| 20260506161501 | 12 | 188 | 6.4 | 16.1 | 0.00 | 0.00 | 0.00 | 88 | 1020.2 |
| 20260506161001 | 12 | 192 | 8.0 | 16.1 | 0.00 | 0.00 | 0.00 | 88 | 1020.1 |
| 20260506160501 | 12 | 182 | 8.0 | 17.7 | 0.00 | 0.00 | 0.00 | 88 | 1019.9 |
| 20260506160003 | 12 | 205 | 6.4 | 17.7 | 0.00 | 0.00 | 0.00 | 88 | 1019.7 |
| 20260506155502 | 12 | 173 | 6.4 | 11.3 | 0.00 | 0.00 | 0.00 | 88 | 1019.9 |
| 20260506154001 | 12 | 196 | 4.8 | 11.3 | 0.00 | 0.00 | 0.00 | 88 | 1020.0 |
| 20260506153001 | 11 | 171 | 6.4 | 12.9 | 0.00 | 0.00 | 0.00 | 88 | 1020.3 |
| 20260506152501 | 11 | 205 | 6.4 | 11.3 | 0.00 | 0.00 | 0.00 | 88 | 1020.3 |
| 20260506152000 | 12 | 192 | 6.4 | 12.9 | 0.00 | 0.00 | 0.00 | 88 | 1020.4 |
| 20260506151501 | 12 | 192 | 6.4 | 12.9 | 0.00 | 0.00 | 0.00 | 88 | 1020.2 |
| 20260506151001 | 12 | 171 | 6.4 | 14.5 | 0.00 | 0.00 | 0.00 | 88 | 1020.2 |
| 20260506150501 | 11 | 203 | 6.4 | 14.5 | 0.00 | 0.00 | 0.00 | 88 | 1020.0 |
| 20260506150001 | 12 | 184 | 6.4 | 14.5 | 0.00 | 0.00 | 0.00 | 87 | 1019.9 |
| 20260506145501 | 12 | 183 | 4.8 | 11.3 | 0.00 | 0.00 | 0.00 | 87 | 1019.8 |
| 20260506145000 | 12 | 174 | 4.8 | 11.3 | 0.00 | 0.00 | 0.00 | 87 | 1019.9 |
| 20260506144502 | 12 | 186 | 4.8 | 9.7 | 0.00 | 0.00 | 0.00 | 87 | 1020.0 |
| 20260506144001 | 12 | 182 | 4.8 | 9.7 | 0.00 | 0.00 | 0.00 | 87 | 1020.0 |
| 20260506143500 | 12 | 192 | 3.2 | 8.0 | 0.00 | 0.00 | 0.00 | 87 | 1020.0 |
| 20260506142001 | 12 | 216 | 3.2 | 9.7 | 0.00 | 0.00 | 0.00 | 86 | 1020.0 |
| 20260506141501 | 12 | 205 | 4.8 | 9.7 | 0.00 | 0.00 | 0.00 | 86 | 1019.9 |
| 20260506141002 | 12 | 198 | 4.8 | 9.7 | 0.00 | 0.00 | 0.00 | 86 | 1019.8 |
| 20260506140501 | 12 | 180 | 6.4 | 12.9 | 0.00 | 0.00 | 0.00 | 86 | 1019.7 |
| 20260506140000 | 12 | 186 | 4.8 | 12.9 | 0.00 | 0.00 | 0.00 | 86 | 1019.7 |
| 20260506135501 | 12 | 187 | 4.8 | 9.7 | 0.00 | 0.00 | 0.00 | 86 | 1019.7 |
| 20260506135002 | 12 | 182 | 3.2 | 8.0 | 0.00 | 0.00 | 0.00 | 85 | 1019.7 |
| 20260506134501 | 12 | 190 | 3.2 | 8.0 | 0.00 | 0.00 | 0.00 | 85 | 1019.8 |
| 20260506134001 | 12 | 192 | 4.8 | 11.3 | 0.00 | 0.00 | 0.00 | 85 | 1019.7 |
| 20260506133001 | 12 | 176 | 4.8 | 9.7 | 0.00 | 0.00 | 0.00 | 85 | 1019.7 |
| 20260506132501 | 12 | 188 | 4.8 | 8.0 | 0.00 | 0.00 | 0.00 | 85 | 1019.7 |
| 20260506132001 | 12 | 194 | 4.8 | 9.7 | 0.00 | 0.00 | 0.00 | 85 | 1019.6 |
| 20260506131001 | 12 | 182 | 6.4 | 12.9 | 0.00 | 0.00 | 0.00 | 85 | 1019.4 |
| 20260506130500 | 12 | 206 | 4.8 | 12.9 | 0.00 | 0.00 | 0.00 | 85 | 1019.6 |
| 20260506130001 | 12 | 202 | 6.4 | 16.1 | 0.00 | 0.00 | 0.00 | 85 | 1019.2 |
| 20260506124501 | 12 | 189 | 6.4 | 14.5 | 0.00 | 0.00 | 0.00 | 84 | 1019.2 |
| 20260506124001 | 12 | 173 | 6.4 | 14.5 | 0.00 | 0.00 | 0.00 | 84 | 1019.1 |
| 20260506123501 | 12 | 180 | 6.4 | 11.3 | 0.00 | 0.00 | 0.00 | 84 | 1019.1 |
| 20260506123001 | 12 | 0 | 6.4 | 11.3 | 0.00 | 0.00 | 0.00 | 84 | 1019.1 |
| 20260506122501 | 12 | 207 | 8.0 | 12.9 | 0.00 | 0.00 | 0.00 | 84 | 1019.0 |
| 20260506122001 | 12 | 184 | 6.4 | 12.9 | 0.00 | 0.00 | 0.00 | 84 | 1018.9 |
| 20260506121501 | 12 | 193 | 8.0 | 19.3 | 0.00 | 0.00 | 0.00 | 84 | 1018.9 |
| 20260506121001 | 12 | 191 | 8.0 | 19.3 | 0.00 | 0.00 | 0.00 | 83 | 1018.9 |
| 20260506120501 | 12 | 190 | 8.0 | 16.1 | 0.00 | 0.00 | 0.00 | 83 | 1018.9 |
| 20260506120000 | 12 | 167 | 8.0 | 17.7 | 0.00 | 0.00 | 0.00 | 83 | 1018.9 |
| 20260506115502 | 12 | 186 | 8.0 | 17.7 | 0.00 | 0.00 | 0.00 | 83 | 1018.8 |
| 20260506115002 | 12 | 192 | 8.0 | 12.9 | 0.00 | 0.00 | 0.00 | 83 | 1018.8 |
| 20260506114501 | 12 | 186 | 6.4 | 14.5 | 0.00 | 0.00 | 0.00 | 83 | 1018.8 |
| 20260506113502 | 12 | 197 | 6.4 | 17.7 | 0.00 | 0.00 | 0.00 | 83 | 1018.6 |
| 20260506113001 | 12 | 186 | 6.4 | 17.7 | 0.00 | 0.00 | 0.00 | 83 | 1018.6 |
| 20260506112501 | 12 | 203 | 8.0 | 16.1 | 0.00 | 0.00 | 0.00 | 83 | 1018.6 |
| 20260506112001 | 12 | 193 | 6.4 | 16.1 | 0.00 | 0.00 | 0.00 | 83 | 1018.6 |
| 20260506111501 | 12 | 194 | 8.0 | 12.9 | 0.00 | 0.00 | 0.00 | 83 | 1018.6 |
| 20260506111001 | 12 | 175 | 8.0 | 14.5 | 0.00 | 0.00 | 0.00 | 83 | 1018.6 |
| 20260506110000 | 12 | 208 | 9.7 | 16.1 | 0.00 | 0.00 | 0.00 | 83 | 1018.5 |
| 20260506105501 | 12 | 198 | 9.7 | 14.5 | 0.00 | 0.00 | 0.00 | 83 | 1018.4 |
| 20260506105001 | 12 | 194 | 8.0 | 14.5 | 0.00 | 0.00 | 0.00 | 83 | 1018.5 |
| 20260506104501 | 12 | 197 | 6.4 | 12.9 | 0.00 | 0.00 | 0.00 | 83 | 1018.5 |
| 20260506104001 | 12 | 202 | 8.0 | 12.9 | 0.00 | 0.00 | 0.00 | 83 | 1018.3 |
| 20260506103500 | 12 | 194 | 8.0 | 12.9 | 0.00 | 0.00 | 0.00 | 83 | 1018.3 |
| 20260506102501 | 12 | 196 | 6.4 | 12.9 | 0.00 | 0.00 | 0.00 | 83 | 1018.2 |
| 20260506102001 | 12 | 202 | 8.0 | 12.9 | 0.00 | 0.00 | 0.00 | 83 | 1018.3 |
| 20260506101002 | 12 | 190 | 9.7 | 14.5 | 0.00 | 0.00 | 0.00 | 83 | 1018.2 |
| 20260506100501 | 12 | 188 | 9.7 | 16.1 | 0.00 | 0.00 | 0.00 | 83 | 1018.2 |
| 20260506100002 | 12 | 194 | 11.3 | 19.3 | 0.00 | 0.00 | 0.00 | 83 | 1018.1 |
| 20260506094501 | 12 | 205 | 12.9 | 22.5 | 0.00 | 0.00 | 0.00 | 83 | 1018.0 |